Peary Spirit — C6YM3 — position and weather

sailwx.info

Track history (hours):
 
Tides and Currents Weather Stations Pressure Air Temp Water Temp Dewpoint Dewpoint Depression Visibility Wind Speed Wind Dir Waves Ship Positions

Peary Spirit

Last reported at 2017-Mar-17 23:32 UTC. Time now 2017-Mar-23 14:07 UTC.
Position N 58°35' E 004°27'.

Length 249 m; draft 9.6 m.

Type: Ship (hazmat cat A). MMSI: 311027600.

Date/timePositionNaut miles runAvg speedWind from/ knotsBaromVisibWave heightAir tempDewpointWater temp
2017-Mar-17 23:32N 58°35' E 004°27'9 9.5
2017-Mar-17 22:33N 58°27' E 004°33'10 9.2
2017-Mar-17 21:31N 58°17' E 004°39'188 9.8
2017-Mar-17 02:23N 55°21' E 006°38'810.2
2017-Mar-17 01:33N 55°14' E 006°42'1010.1
2017-Mar-17 00:33N 55°04' E 006°49'1010.1
2017-Mar-16 23:33N 54°55' E 006°56'10 9.9
2017-Mar-16 22:33N 54°46' E 007°02'5811.7
2017-Mar-16 17:33N 53°53' E 007°46'1716.6
2017-Mar-16 16:33N 53°41' E 008°05'8 7.1
2017-Mar-16 15:22N 53°33' E 008°10'0 0.0
2017-Mar-16 12:25N 53°33' E 008°10'0 0.0
2017-Mar-15 12:33N 53°33' E 008°10'6 6.1
2017-Mar-15 11:33N 53°39' E 008°07'1111.1
2017-Mar-15 10:33N 53°49' E 007°58'1010.2
2017-Mar-15 09:33N 53°54' E 007°43'13 6.1
2017-Mar-15 07:27N 54°03' E 007°28'45 8.9
2017-Mar-15 02:25N 54°45' E 007°01'1111.9
2017-Mar-15 01:28N 54°55' E 006°53'1111.8
2017-Mar-15 00:33N 55°05' E 006°46'1212.0
2017-Mar-14 23:33N 55°16' E 006°38'  
2017-Mar-11 11:22N 54°52' E 000°19'1315.8
2017-Mar-11 10:33N 54°39' E 000°19'1616.3
2017-Mar-11 09:33N 54°23' E 000°19'1716.6
2017-Mar-11 08:33N 54°06' E 000°19'3112.8
2017-Mar-11 06:06N 53°35' E 000°18'611.6
2017-Mar-11 05:33N 53°33' E 000°08'12 4.7
2017-Mar-11 03:06N 53°38' W 000°10'0 0.0
2017-Mar-11 02:15N 53°38' W 000°10'0 0.0
2017-Mar-11 01:33N 53°38' W 000°10'0 0.0
2017-Mar-11 00:30N 53°38' W 000°10'0 0.0
2017-Mar-10 23:33N 53°38' W 000°10'0 0.0
2017-Mar-10 22:21N 53°38' W 000°10'0 0.0
2017-Mar-10 21:30N 53°38' W 000°10'0 0.0
2017-Mar-10 12:18N 53°38' W 000°10'0 0.0
2017-Mar-10 11:30N 53°38' W 000°10'0 0.0
2017-Mar-10 01:21N 53°38' W 000°10'0 0.0
2017-Mar-10 00:27N 53°38' W 000°10'0 0.0
2017-Mar-09 23:30N 53°38' W 000°10'0 0.0
2017-Mar-09 22:33N 53°38' W 000°10'0 0.0
2017-Mar-09 20:24N 53°38' W 000°10'0 0.0
2017-Mar-09 19:21N 53°38' W 000°10'0 0.0
2017-Mar-09 16:33N 53°38' W 000°10'0 0.4
2017-Mar-09 15:33N 53°38' W 000°09'6 6.0
2017-Mar-09 14:33N 53°37' E 000°01'9 9.2
2017-Mar-09 13:33N 53°34' E 000°15'34 8.6
2017-Mar-09 09:34N 54°07' E 000°27'1212.4
2017-Mar-09 08:34N 54°19' E 000°33'  
Track history (hours):
 
Tides and Currents Weather Stations Pressure Air Temp Water Temp Dewpoint Dewpoint Depression Visibility Wind Speed Wind Dir Waves Ship Positions

Peary Spirit

Last reported at 2017-Mar-17 23:32 UTC. Time now 2017-Mar-23 14:07 UTC.
Position N 58°35' E 004°27'.

Length 249 m; draft 9.6 m.

Type: Ship (hazmat cat A). MMSI: 311027600.

Date/timePositionNaut miles runAvg speedWind from/ knotsBaromVisibWave heightAir tempDewpointWater temp
2017-Mar-17 23:32N 58°35' E 004°27'9 9.5
2017-Mar-17 22:33N 58°27' E 004°33'10 9.2
2017-Mar-17 21:31N 58°17' E 004°39'188 9.8
2017-Mar-17 02:23N 55°21' E 006°38'810.2
2017-Mar-17 01:33N 55°14' E 006°42'1010.1
2017-Mar-17 00:33N 55°04' E 006°49'1010.1
2017-Mar-16 23:33N 54°55' E 006°56'10 9.9
2017-Mar-16 22:33N 54°46' E 007°02'5811.7
2017-Mar-16 17:33N 53°53' E 007°46'1716.6
2017-Mar-16 16:33N 53°41' E 008°05'8 7.1
2017-Mar-16 15:22N 53°33' E 008°10'0 0.0
2017-Mar-16 12:25N 53°33' E 008°10'0 0.0
2017-Mar-15 12:33N 53°33' E 008°10'6 6.1
2017-Mar-15 11:33N 53°39' E 008°07'1111.1
2017-Mar-15 10:33N 53°49' E 007°58'1010.2
2017-Mar-15 09:33N 53°54' E 007°43'13 6.1
2017-Mar-15 07:27N 54°03' E 007°28'45 8.9
2017-Mar-15 02:25N 54°45' E 007°01'1111.9
2017-Mar-15 01:28N 54°55' E 006°53'1111.8
2017-Mar-15 00:33N 55°05' E 006°46'1212.0
2017-Mar-14 23:33N 55°16' E 006°38'  
2017-Mar-11 11:22N 54°52' E 000°19'1315.8
2017-Mar-11 10:33N 54°39' E 000°19'1616.3
2017-Mar-11 09:33N 54°23' E 000°19'1716.6
2017-Mar-11 08:33N 54°06' E 000°19'3112.8
2017-Mar-11 06:06N 53°35' E 000°18'611.6
2017-Mar-11 05:33N 53°33' E 000°08'12 4.7
2017-Mar-11 03:06N 53°38' W 000°10'0 0.0
2017-Mar-11 02:15N 53°38' W 000°10'0 0.0
2017-Mar-11 01:33N 53°38' W 000°10'0 0.0
2017-Mar-11 00:30N 53°38' W 000°10'0 0.0
2017-Mar-10 23:33N 53°38' W 000°10'0 0.0
2017-Mar-10 22:21N 53°38' W 000°10'0 0.0
2017-Mar-10 21:30N 53°38' W 000°10'0 0.0
2017-Mar-10 12:18N 53°38' W 000°10'0 0.0
2017-Mar-10 11:30N 53°38' W 000°10'0 0.0
2017-Mar-10 01:21N 53°38' W 000°10'0 0.0
2017-Mar-10 00:27N 53°38' W 000°10'0 0.0
2017-Mar-09 23:30N 53°38' W 000°10'0 0.0
2017-Mar-09 22:33N 53°38' W 000°10'0 0.0
2017-Mar-09 20:24N 53°38' W 000°10'0 0.0
2017-Mar-09 19:21N 53°38' W 000°10'0 0.0
2017-Mar-09 16:33N 53°38' W 000°10'0 0.4
2017-Mar-09 15:33N 53°38' W 000°09'6 6.0
2017-Mar-09 14:33N 53°37' E 000°01'9 9.2
2017-Mar-09 13:33N 53°34' E 000°15'34 8.6
2017-Mar-09 09:34N 54°07' E 000°27'1212.4
2017-Mar-09 08:34N 54°19' E 000°33'  

Dump ship's entire track history